createdAt,value
2019-01-20T00:01:04.148Z,89.26
2019-01-20T00:02:04.046Z,89.12
2019-01-20T00:03:11.547Z,88.74
2019-01-20T00:04:03.933Z,88.74
2019-01-20T00:05:03.882Z,88.17
2019-01-20T00:06:03.883Z,88.36
2019-01-20T00:07:03.808Z,88.17
2019-01-20T00:08:03.799Z,88.55
2019-01-20T00:09:12.805Z,87.79
2019-01-20T00:10:13.842Z,87.42
2019-01-20T00:11:16.769Z,86.85
2019-01-20T00:12:12.924Z,87.23
2019-01-20T00:13:03.547Z,86.57
2019-01-20T00:14:03.459Z,86.57
2019-01-20T00:15:03.427Z,85.81
2019-01-20T00:16:03.374Z,86.38
2019-01-20T00:17:03.392Z,86.85
2019-01-20T00:18:03.347Z,87.04
2019-01-20T00:19:03.259Z,87.13
2019-01-20T00:20:03.193Z,87.85
2019-01-20T00:21:03.145Z,87.66
2019-01-20T00:22:03.066Z,88.23
2019-01-20T00:23:03.040Z,88.70
2019-01-20T00:24:02.979Z,88.98
2019-01-20T00:25:02.954Z,90.21
2019-01-20T00:26:02.895Z,90.59
2019-01-20T00:27:02.906Z,91.06
2019-01-20T00:28:02.807Z,91.82
2019-01-20T00:29:02.745Z,93.80
2019-01-20T00:30:02.692Z,94.65
2019-01-20T00:31:02.680Z,95.64
2019-01-20T00:32:02.582Z,95.73
2019-01-20T00:33:02.567Z,95.92
2019-01-20T00:34:02.501Z,96.30
2019-01-20T00:35:02.459Z,96.68
2019-01-20T00:36:11.444Z,97.62
2019-01-20T00:37:02.344Z,97.34
2019-01-20T00:38:02.328Z,96.49
2019-01-20T00:39:02.232Z,96.68
2019-01-20T00:40:11.457Z,96.68
2019-01-20T00:41:02.165Z,96.49
2019-01-20T00:42:02.134Z,96.58
2019-01-20T00:43:02.026Z,96.68
2019-01-20T00:44:02.027Z,96.49
2019-01-20T00:45:02.683Z,96.11
2019-01-20T00:46:01.920Z,95.54
2019-01-20T00:47:01.882Z,96.20
2019-01-20T00:48:01.789Z,96.30
2019-01-20T00:49:01.743Z,95.54
2019-01-20T00:50:01.708Z,95.73
2019-01-20T00:51:01.689Z,95.26
2019-01-20T00:52:02.342Z,96.86
2019-01-20T00:53:01.580Z,96.30
2019-01-20T00:54:01.533Z,95.45
2019-01-20T00:55:01.495Z,95.54
2019-01-20T00:56:01.401Z,95.83
2019-01-20T00:57:01.380Z,94.70
2019-01-20T00:58:01.337Z,94.51
2019-01-20T00:59:01.250Z,94.79
2019-01-20T01:00:01.263Z,94.37
2019-01-20T01:01:01.180Z,94.27
2019-01-20T01:02:01.112Z,94.56
2019-01-20T01:03:01.058Z,94.03
2019-01-20T01:04:01.006Z,94.37
2019-01-20T01:05:01.024Z,93.80
2019-01-20T01:06:00.912Z,92.85
2019-01-20T01:07:00.879Z,92.66
2019-01-20T01:08:00.875Z,92.47
2019-01-20T01:09:00.806Z,91.34
2019-01-20T01:10:00.747Z,90.11
2019-01-20T01:11:00.683Z,90.11
2019-01-20T01:12:00.641Z,89.64
2019-01-20T01:13:00.589Z,91.53
2019-01-20T01:14:00.619Z,91.25
2019-01-20T01:15:00.528Z,90.02
2019-01-20T01:16:00.462Z,89.73
2019-01-20T01:17:00.422Z,89.83
2019-01-20T01:18:00.379Z,90.21
2019-01-20T01:19:00.363Z,90.68
2019-01-20T01:20:00.301Z,91.72
2019-01-20T01:21:00.289Z,91.72
2019-01-20T01:22:00.149Z,93.42
2019-01-20T01:23:00.797Z,93.13
2019-01-20T01:24:00.125Z,93.51
2019-01-20T01:25:00.017Z,94.13
2019-01-20T01:25:59.955Z,94.22
2019-01-20T01:26:59.926Z,94.89
2019-01-20T01:27:59.846Z,95.17
2019-01-20T01:28:59.793Z,95.17
2019-01-20T01:29:59.796Z,96.20
2019-01-20T01:30:59.701Z,95.83
2019-01-20T01:31:59.640Z,95.73
2019-01-20T01:32:59.622Z,96.96
2019-01-20T01:34:00.301Z,97.15
2019-01-20T01:34:59.522Z,98.66
2019-01-20T01:35:59.511Z,98.57
2019-01-20T01:36:59.416Z,98.47
2019-01-20T01:37:59.336Z,99.60
2019-01-20T01:38:59.340Z,99.13
2019-01-20T01:39:59.281Z,99.22
2019-01-20T01:40:59.198Z,99.99
2019-01-20T01:41:59.173Z,99.99
2019-01-20T01:42:59.109Z,99.99
2019-01-20T01:44:00.138Z,99.99
2019-01-20T01:44:59.052Z,99.99
2019-01-20T01:45:59.030Z,99.99
2019-01-20T01:46:58.963Z,99.99
2019-01-20T01:47:58.895Z,99.99
2019-01-20T01:48:58.805Z,99.99
2019-01-20T01:49:58.763Z,99.99
2019-01-20T01:50:58.729Z,99.99
2019-01-20T01:51:58.667Z,99.99
2019-01-20T01:52:58.654Z,99.99
2019-01-20T01:53:58.569Z,99.99
2019-01-20T01:54:58.573Z,99.99
2019-01-20T01:55:58.475Z,99.99
2019-01-20T01:56:58.471Z,99.99
2019-01-20T01:57:58.401Z,99.99
2019-01-20T01:58:58.342Z,99.99
2019-01-20T01:59:58.297Z,99.99
2019-01-20T02:00:58.285Z,99.99
2019-01-20T02:01:58.202Z,99.99
2019-01-20T02:02:58.167Z,99.99
2019-01-20T02:03:58.098Z,99.99
2019-01-20T02:04:58.063Z,99.99
2019-01-20T02:05:58.046Z,99.99
2019-01-20T02:06:57.941Z,99.99
2019-01-20T02:07:57.880Z,99.99
2019-01-20T02:08:57.831Z,99.99
2019-01-20T02:09:57.799Z,99.99
2019-01-20T02:10:57.762Z,99.99
2019-01-20T02:11:57.697Z,99.99
2019-01-20T02:12:57.660Z,99.99
2019-01-20T02:13:57.595Z,99.99
2019-01-20T02:14:57.574Z,99.99
2019-01-20T02:15:57.502Z,99.99
2019-01-20T02:16:57.484Z,99.99
2019-01-20T02:17:57.394Z,99.99
2019-01-20T02:18:57.318Z,99.99
2019-01-20T02:19:57.294Z,99.99
2019-01-20T02:20:57.272Z,99.99
2019-01-20T02:21:57.221Z,99.99
2019-01-20T02:22:57.200Z,99.99
2019-01-20T02:23:57.087Z,99.99
2019-01-20T02:24:57.057Z,99.99
2019-01-20T02:25:57.007Z,99.99
2019-01-20T02:26:56.995Z,99.99
2019-01-20T02:27:56.893Z,99.99
2019-01-20T02:28:56.860Z,99.99
2019-01-20T02:29:56.778Z,99.79
2019-01-20T02:30:56.756Z,99.99
2019-01-20T02:31:56.712Z,99.99
2019-01-20T02:32:56.705Z,99.99
2019-01-20T02:33:56.623Z,99.99
2019-01-20T02:34:56.586Z,99.99
2019-01-20T02:35:56.511Z,99.99
2019-01-20T02:36:56.470Z,99.99
2019-01-20T02:37:56.441Z,99.99
2019-01-20T02:38:56.366Z,99.99
2019-01-20T02:39:56.327Z,99.99
2019-01-20T02:40:56.257Z,99.99
2019-01-20T02:41:56.481Z,99.99
2019-01-20T02:42:56.191Z,99.99
2019-01-20T02:43:56.202Z,99.99
2019-01-20T02:44:56.059Z,99.99
2019-01-20T02:45:56.035Z,99.99
2019-01-20T02:46:55.954Z,99.99
2019-01-20T02:47:55.943Z,99.99
2019-01-20T02:48:55.929Z,99.99
2019-01-20T02:49:55.803Z,99.99
2019-01-20T02:50:55.798Z,99.99
2019-01-20T02:51:55.817Z,99.99
2019-01-20T02:52:55.657Z,99.99
2019-01-20T02:53:55.642Z,99.99
2019-01-20T02:54:55.584Z,99.99
2019-01-20T02:55:55.538Z,99.99
2019-01-20T02:56:55.481Z,99.99
2019-01-20T02:57:55.444Z,99.99
2019-01-20T02:58:55.386Z,99.99
2019-01-20T02:59:55.318Z,99.99
2019-01-20T03:00:55.299Z,99.99
2019-01-20T03:01:55.243Z,99.99
2019-01-20T03:02:55.203Z,99.99
2019-01-20T03:03:55.173Z,99.99
2019-01-20T03:04:55.121Z,99.99
2019-01-20T03:05:55.037Z,99.99
2019-01-20T03:06:54.979Z,99.99
2019-01-20T03:07:54.937Z,99.99
2019-01-20T03:08:54.910Z,99.99
2019-01-20T03:09:54.838Z,99.99
2019-01-20T03:10:54.795Z,99.99
2019-01-20T03:11:54.761Z,99.99
2019-01-20T03:12:54.694Z,99.99
2019-01-20T03:13:54.694Z,99.99
2019-01-20T03:14:54.610Z,99.99
2019-01-20T03:15:54.537Z,99.99
2019-01-20T03:16:54.492Z,99.99
2019-01-20T03:17:54.433Z,99.99
2019-01-20T03:18:54.376Z,99.99
2019-01-20T03:19:54.362Z,99.99
2019-01-20T03:20:54.313Z,99.99
2019-01-20T03:21:54.254Z,99.99
2019-01-20T03:22:54.180Z,99.99
2019-01-20T03:23:54.125Z,99.99
2019-01-20T03:24:54.099Z,99.99
2019-01-20T03:25:54.105Z,99.99
2019-01-20T03:26:53.984Z,99.99
2019-01-20T03:27:53.939Z,99.99
2019-01-20T03:28:53.922Z,99.99
2019-01-20T03:29:53.875Z,99.99
2019-01-20T03:30:53.812Z,99.99
2019-01-20T03:31:53.777Z,99.99
2019-01-20T03:32:53.714Z,99.99
2019-01-20T03:33:53.662Z,99.99
2019-01-20T03:34:53.624Z,99.99
2019-01-20T03:35:53.566Z,99.99
2019-01-20T03:36:53.521Z,99.99
2019-01-20T03:37:53.459Z,99.99
2019-01-20T03:38:53.404Z,99.99
2019-01-20T03:39:53.353Z,99.99
2019-01-20T03:42:32.608Z,99.99
2019-01-20T03:43:32.522Z,99.99
2019-01-20T03:44:32.469Z,99.99
2019-01-20T03:45:32.399Z,99.99
2019-01-20T03:46:32.442Z,99.99
2019-01-20T03:47:32.334Z,99.99
2019-01-20T03:48:32.323Z,99.99
2019-01-20T03:49:32.249Z,99.99
2019-01-20T03:50:32.188Z,99.99
2019-01-20T03:51:32.120Z,99.99
2019-01-20T03:52:32.124Z,99.99
2019-01-20T03:53:32.036Z,99.99
2019-01-20T03:54:32.037Z,99.99
2019-01-20T03:55:31.935Z,99.99
2019-01-20T03:56:31.901Z,99.99
2019-01-20T03:57:31.860Z,99.99
2019-01-20T03:58:31.787Z,99.99
2019-01-20T03:59:31.757Z,99.99
2019-01-20T04:00:31.697Z,99.99
2019-01-20T04:01:31.632Z,99.99
2019-01-20T04:02:31.566Z,99.99
2019-01-20T04:03:31.527Z,99.99
2019-01-20T04:04:31.493Z,99.99
2019-01-20T04:05:31.448Z,99.99
2019-01-20T04:06:31.394Z,99.99
2019-01-20T04:07:31.318Z,99.99
2019-01-20T04:08:31.294Z,99.99
2019-01-20T04:09:31.279Z,99.99
2019-01-20T04:10:31.215Z,99.99
2019-01-20T04:11:31.143Z,99.99
2019-01-20T04:12:31.087Z,99.99
2019-01-20T04:13:31.019Z,99.99
2019-01-20T04:14:30.997Z,99.99
2019-01-20T04:15:30.990Z,99.99
2019-01-20T04:16:30.913Z,99.99
2019-01-20T04:17:30.813Z,99.99
2019-01-20T04:18:30.804Z,99.99
2019-01-20T04:19:30.730Z,99.99
2019-01-20T04:20:30.717Z,99.99
2019-01-20T04:21:30.620Z,99.99
2019-01-20T04:22:31.097Z,99.99
2019-01-20T04:23:30.528Z,99.99
2019-01-20T04:24:30.496Z,99.99
2019-01-20T04:25:30.469Z,99.99
2019-01-20T04:26:30.385Z,99.99
2019-01-20T04:27:30.325Z,99.99
2019-01-20T04:28:31.101Z,99.99
2019-01-20T04:29:30.247Z,99.99
2019-01-20T04:30:30.210Z,99.99
2019-01-20T04:31:30.143Z,99.99
2019-01-20T04:32:30.094Z,99.99
2019-01-20T04:33:30.029Z,99.99
2019-01-20T04:34:30.004Z,99.99
2019-01-20T04:35:29.943Z,99.99
2019-01-20T04:36:29.887Z,99.99
2019-01-20T04:37:29.833Z,99.99
2019-01-20T04:38:29.800Z,99.99
2019-01-20T04:39:29.761Z,99.99
2019-01-20T04:40:29.709Z,99.99
2019-01-20T04:41:29.668Z,99.99
2019-01-20T04:42:29.603Z,99.99
2019-01-20T04:43:30.100Z,99.99
2019-01-20T04:44:29.604Z,99.99
2019-01-20T04:45:29.494Z,99.99
2019-01-20T04:46:29.390Z,99.99
2019-01-20T04:47:29.360Z,99.99
2019-01-20T04:48:29.299Z,99.99
2019-01-20T04:49:29.261Z,99.99
2019-01-20T04:50:29.196Z,99.99
2019-01-20T04:51:29.198Z,99.99
2019-01-20T04:52:29.101Z,99.99
2019-01-20T04:53:29.062Z,99.99
2019-01-20T04:54:29.046Z,99.99
2019-01-20T04:55:28.948Z,99.99
2019-01-20T04:56:28.917Z,99.99
2019-01-20T04:57:28.840Z,99.99
2019-01-20T04:58:28.820Z,99.99
2019-01-20T04:59:28.806Z,99.99
2019-01-20T05:00:28.716Z,99.99
2019-01-20T05:01:28.632Z,99.99
2019-01-20T05:02:28.651Z,99.99
2019-01-20T05:03:28.553Z,99.99
2019-01-20T05:04:28.541Z,99.99
2019-01-20T05:05:28.488Z,99.99
2019-01-20T05:06:28.410Z,99.99
2019-01-20T05:07:28.380Z,99.99
2019-01-20T05:08:28.321Z,99.99
2019-01-20T05:09:28.313Z,99.99
2019-01-20T05:10:28.186Z,99.99
2019-01-20T05:11:28.174Z,99.99
2019-01-20T05:12:28.123Z,99.99
2019-01-20T05:13:28.045Z,99.99
2019-01-20T05:14:28.042Z,99.99
2019-01-20T05:15:27.987Z,99.51
2019-01-20T05:16:27.980Z,99.70
2019-01-20T05:17:27.897Z,99.04
2019-01-20T05:18:27.824Z,98.85
2019-01-20T05:19:27.774Z,98.00
2019-01-20T05:20:27.717Z,97.72
2019-01-20T05:21:27.695Z,97.24
2019-01-20T05:22:27.622Z,97.62
2019-01-20T05:23:27.580Z,96.20
2019-01-20T05:24:27.511Z,95.64
2019-01-20T05:25:27.492Z,95.26
2019-01-20T05:26:27.433Z,95.45
2019-01-20T05:27:27.358Z,95.26
2019-01-20T05:28:27.422Z,94.98
2019-01-20T05:29:27.276Z,94.32
2019-01-20T05:30:27.267Z,94.18
2019-01-20T05:31:27.213Z,94.32
2019-01-20T05:32:27.154Z,93.89
2019-01-20T05:33:27.055Z,93.94
2019-01-20T05:34:27.009Z,94.18
2019-01-20T05:35:26.990Z,94.37
2019-01-20T05:36:26.982Z,94.22
2019-01-20T05:37:26.875Z,94.32
2019-01-20T05:38:26.812Z,93.94
2019-01-20T05:39:26.778Z,94.32
2019-01-20T05:40:26.748Z,94.37
2019-01-20T05:41:26.697Z,94.27
2019-01-20T05:42:26.602Z,93.66
2019-01-20T05:43:26.640Z,94.79
2019-01-20T05:44:26.575Z,94.03
2019-01-20T05:45:26.484Z,94.13
2019-01-20T05:46:26.458Z,94.08
2019-01-20T05:47:26.376Z,93.80
2019-01-20T05:48:26.381Z,93.51
2019-01-20T05:49:26.310Z,93.56
2019-01-20T05:50:26.238Z,94.41
2019-01-20T05:51:26.210Z,93.94
2019-01-20T05:52:26.155Z,94.13
2019-01-20T05:53:26.118Z,94.60
2019-01-20T05:54:26.049Z,94.13
2019-01-20T05:55:25.991Z,94.22
2019-01-20T05:56:25.982Z,94.98
2019-01-20T05:57:25.913Z,94.51
2019-01-20T05:58:25.872Z,94.51
2019-01-20T05:59:25.791Z,94.60
2019-01-20T06:00:25.762Z,94.79
2019-01-20T06:01:27.278Z,95.07
2019-01-20T06:02:25.663Z,95.64
2019-01-20T06:03:25.654Z,95.17
2019-01-20T06:04:25.553Z,95.73
2019-01-20T06:05:25.511Z,96.86
2019-01-20T06:06:25.440Z,97.15
2019-01-20T06:07:25.424Z,96.49
2019-01-20T06:08:25.363Z,97.53
2019-01-20T06:09:25.312Z,98.47
2019-01-20T06:10:25.262Z,98.75
2019-01-20T06:11:25.207Z,98.94
2019-01-20T06:12:25.184Z,99.04
2019-01-20T06:13:25.124Z,99.70
2019-01-20T06:14:25.039Z,99.88
2019-01-20T06:15:25.004Z,99.70
2019-01-20T06:16:24.952Z,99.88
2019-01-20T06:17:24.900Z,99.70
2019-01-20T06:18:24.898Z,99.99
2019-01-20T06:19:24.820Z,99.99
2019-01-20T06:20:24.750Z,99.99
2019-01-20T06:21:24.711Z,99.99
2019-01-20T06:22:24.704Z,99.99
2019-01-20T06:23:24.641Z,99.99
2019-01-20T06:24:24.588Z,99.99
2019-01-20T06:25:24.532Z,99.99
2019-01-20T06:26:24.481Z,99.99
2019-01-20T06:27:24.384Z,99.99
2019-01-20T06:28:24.408Z,99.99
2019-01-20T06:29:24.342Z,99.99
2019-01-20T06:30:24.296Z,99.99
2019-01-20T06:31:24.235Z,99.99
2019-01-20T06:32:24.161Z,99.99
2019-01-20T06:33:24.152Z,99.99
2019-01-20T06:34:24.087Z,99.99
2019-01-20T06:35:24.020Z,99.99
2019-01-20T06:36:23.978Z,99.99
2019-01-20T06:37:23.935Z,99.99
2019-01-20T06:38:23.882Z,99.99
2019-01-20T06:39:23.826Z,99.99
2019-01-20T06:40:23.809Z,99.99
2019-01-20T06:41:23.747Z,99.99
2019-01-20T06:42:23.698Z,99.99
2019-01-20T06:43:23.613Z,99.99
2019-01-20T06:44:23.602Z,99.99
2019-01-20T06:45:23.519Z,99.99
2019-01-20T06:46:23.490Z,99.99
2019-01-20T06:47:23.435Z,99.99
2019-01-20T06:48:23.380Z,99.99
2019-01-20T06:49:23.359Z,99.99
2019-01-20T06:50:23.268Z,99.99
2019-01-20T06:51:23.247Z,99.99
2019-01-20T06:52:23.203Z,99.99
2019-01-20T06:53:23.136Z,99.99
2019-01-20T06:54:23.182Z,99.99
2019-01-20T06:55:23.046Z,99.99
2019-01-20T06:56:23.031Z,99.99
2019-01-20T06:57:22.966Z,99.99
2019-01-20T06:58:22.870Z,99.99
2019-01-20T06:59:22.855Z,99.99
2019-01-20T07:00:22.829Z,99.99
2019-01-20T07:01:22.761Z,98.99
2019-01-20T07:02:22.722Z,98.80
2019-01-20T07:03:22.657Z,98.43
2019-01-20T07:04:22.589Z,98.66
2019-01-20T07:05:22.612Z,99.60
2019-01-20T07:06:22.528Z,99.22
2019-01-20T07:07:22.461Z,99.99
2019-01-20T07:08:22.390Z,99.99
2019-01-20T07:09:22.370Z,99.99
2019-01-20T07:10:22.310Z,99.99
2019-01-20T07:11:22.326Z,99.99
2019-01-20T07:12:22.209Z,99.99
2019-01-20T07:13:22.169Z,99.99
2019-01-20T07:14:22.091Z,99.99
2019-01-20T07:15:22.049Z,99.99
2019-01-20T07:16:22.024Z,99.99
2019-01-20T07:17:22.024Z,99.99
2019-01-20T07:18:21.877Z,99.99
2019-01-20T07:19:21.838Z,99.99
2019-01-20T07:20:21.789Z,99.99
2019-01-20T07:21:21.778Z,99.99
2019-01-20T07:22:21.709Z,99.99
2019-01-20T07:23:21.636Z,99.99
2019-01-20T07:24:21.583Z,99.99
2019-01-20T07:25:21.559Z,99.99
2019-01-20T07:26:21.492Z,99.99
2019-01-20T07:27:21.502Z,99.99
2019-01-20T07:28:21.397Z,99.99
2019-01-20T07:29:21.340Z,99.99
2019-01-20T07:30:21.273Z,99.99
2019-01-20T07:31:21.272Z,99.99
2019-01-20T07:32:21.222Z,99.99
2019-01-20T07:33:21.178Z,99.99
2019-01-20T07:34:21.094Z,99.99
2019-01-20T07:35:21.062Z,99.99
2019-01-20T07:36:21.006Z,99.99
2019-01-20T07:37:20.996Z,99.99
2019-01-20T07:38:20.898Z,99.99
2019-01-20T07:39:20.846Z,99.99
2019-01-20T07:40:20.826Z,99.99
2019-01-20T07:41:20.730Z,99.99
2019-01-20T07:42:20.713Z,99.99
2019-01-20T07:43:20.629Z,99.99
2019-01-20T07:44:20.621Z,99.99
2019-01-20T07:45:20.571Z,99.99
2019-01-20T07:46:20.506Z,99.99
2019-01-20T07:47:20.518Z,99.99
2019-01-20T07:48:20.417Z,99.99
2019-01-20T07:49:20.393Z,99.99
2019-01-20T07:50:20.290Z,99.99
2019-01-20T07:51:20.247Z,99.99
2019-01-20T07:52:20.207Z,99.99
2019-01-20T07:53:20.166Z,99.99
2019-01-20T07:54:20.105Z,99.99
2019-01-20T07:55:20.048Z,99.99
2019-01-20T07:56:19.998Z,99.99
2019-01-20T07:57:19.946Z,99.99
2019-01-20T07:58:19.937Z,99.99
2019-01-20T07:59:19.861Z,99.99
2019-01-20T08:00:19.810Z,99.99
2019-01-20T08:01:19.767Z,99.99
2019-01-20T08:02:19.728Z,99.99
2019-01-20T08:03:19.675Z,99.99
2019-01-20T08:04:19.592Z,99.99
2019-01-20T08:05:19.558Z,99.99
2019-01-20T08:06:19.503Z,99.99
2019-01-20T08:07:19.460Z,99.99
2019-01-20T08:08:19.473Z,99.99
2019-01-20T08:09:19.406Z,99.99
2019-01-20T08:10:19.325Z,99.99
2019-01-20T08:11:19.295Z,99.99
2019-01-20T08:12:23.491Z,99.99
2019-01-20T08:13:24.229Z,99.99
2019-01-20T08:14:19.157Z,99.99
2019-01-20T08:15:19.154Z,99.99
2019-01-20T08:16:19.054Z,99.99
2019-01-20T08:17:18.998Z,99.99
2019-01-20T08:18:18.932Z,99.99
2019-01-20T08:19:18.870Z,99.99
2019-01-20T08:20:18.838Z,99.99
2019-01-20T08:21:18.756Z,99.99
2019-01-20T08:22:18.701Z,99.99
2019-01-20T08:23:18.721Z,99.99
2019-01-20T08:24:18.622Z,99.99
2019-01-20T08:25:18.800Z,99.99
2019-01-20T08:26:18.556Z,99.99
2019-01-20T08:27:18.490Z,99.99
2019-01-20T08:28:18.451Z,99.99
2019-01-20T08:29:18.470Z,99.99
2019-01-20T08:30:18.346Z,99.14
2019-01-20T08:31:18.291Z,97.67
2019-01-20T08:32:18.464Z,97.01
2019-01-20T08:33:18.222Z,96.45
2019-01-20T08:34:18.184Z,96.64
2019-01-20T08:35:18.084Z,95.50
2019-01-20T08:36:18.032Z,95.40
2019-01-20T08:37:18.005Z,94.37
2019-01-20T08:38:17.947Z,93.80
2019-01-20T08:39:17.933Z,93.18
2019-01-20T08:40:17.864Z,92.71
2019-01-20T08:41:17.815Z,92.71
2019-01-20T08:42:17.772Z,92.80
2019-01-20T08:43:17.741Z,93.28
2019-01-20T08:44:17.720Z,92.80
2019-01-20T08:45:17.660Z,92.14
2019-01-20T08:46:17.633Z,92.24
2019-01-20T08:47:17.615Z,91.39
2019-01-20T08:48:17.530Z,91.86
2019-01-20T08:49:17.483Z,90.63
2019-01-20T08:50:17.420Z,89.87
2019-01-20T08:51:17.390Z,89.87
2019-01-20T08:52:17.417Z,89.69
2019-01-20T08:53:17.286Z,91.01
2019-01-20T08:54:17.248Z,90.77
2019-01-20T08:55:17.193Z,90.86
2019-01-20T08:56:17.172Z,89.73
2019-01-20T08:57:17.119Z,90.39
2019-01-20T08:58:17.054Z,89.82
2019-01-20T08:59:17.029Z,89.35
2019-01-20T09:00:16.990Z,89.44
2019-01-20T09:01:16.952Z,89.63
2019-01-20T09:02:16.891Z,89.49
2019-01-20T09:03:16.892Z,89.01
2019-01-20T09:04:16.820Z,87.69
2019-01-20T09:05:16.781Z,86.36
2019-01-20T09:06:16.719Z,85.61
2019-01-20T09:07:16.680Z,85.70
2019-01-20T09:08:16.651Z,86.08
2019-01-20T09:09:16.622Z,84.47
2019-01-20T09:10:16.557Z,84.85
2019-01-20T09:11:16.515Z,85.80
2019-01-20T09:12:16.460Z,85.13
2019-01-20T09:13:16.452Z,85.13
2019-01-20T09:14:16.388Z,85.89
2019-01-20T09:15:16.350Z,85.80
2019-01-20T09:16:16.323Z,85.51
2019-01-20T09:17:16.264Z,85.93
2019-01-20T09:18:16.240Z,84.32
2019-01-20T09:19:16.179Z,84.32
2019-01-20T09:20:16.151Z,84.23
2019-01-20T09:21:16.102Z,84.38
2019-01-20T09:22:16.069Z,84.47
2019-01-20T09:23:16.037Z,84.70
2019-01-20T09:24:15.994Z,83.75
2019-01-20T09:25:15.938Z,83.37
2019-01-20T09:26:15.896Z,83.00
2019-01-20T09:27:15.869Z,82.62
2019-01-20T09:28:15.818Z,81.14
2019-01-20T09:29:15.798Z,81.24
2019-01-20T09:30:15.729Z,80.57
2019-01-20T09:31:15.684Z,80.10
2019-01-20T09:32:15.647Z,80.76
2019-01-20T09:33:15.616Z,81.43
2019-01-20T09:34:15.600Z,81.81
2019-01-20T09:35:15.567Z,81.67
2019-01-20T09:36:15.487Z,81.52
2019-01-20T09:37:15.449Z,80.67
2019-01-20T09:38:15.443Z,79.44
2019-01-20T09:39:15.369Z,79.10
2019-01-20T09:40:15.345Z,79.28
2019-01-20T09:41:15.307Z,78.38
2019-01-20T09:42:15.244Z,76.57
2019-01-20T09:43:15.239Z,75.53
2019-01-20T09:44:15.165Z,75.15
2019-01-20T09:45:15.155Z,76.20
2019-01-20T09:46:16.327Z,74.58
2019-01-20T09:47:15.083Z,71.64
2019-01-20T09:48:15.042Z,70.69
2019-01-20T09:49:14.993Z,70.78
2019-01-20T09:50:14.938Z,71.11
2019-01-20T09:51:14.887Z,69.87
2019-01-20T09:52:14.875Z,70.40
2019-01-20T09:53:14.846Z,70.40
2019-01-20T09:54:14.807Z,70.63
2019-01-20T09:55:14.741Z,69.84
2019-01-20T09:56:14.709Z,70.69
2019-01-20T09:57:14.656Z,70.63
2019-01-20T09:58:14.636Z,69.87
2019-01-20T09:59:14.613Z,70.63
2019-01-20T10:00:14.548Z,70.44
2019-01-20T10:01:14.509Z,68.29
2019-01-20T10:02:14.468Z,66.93
2019-01-20T10:03:16.242Z,66.08
2019-01-20T10:04:14.458Z,66.74
2019-01-20T10:05:14.364Z,65.88
2019-01-20T10:06:14.405Z,65.79
2019-01-20T10:07:14.293Z,66.55
2019-01-20T10:08:14.299Z,67.56
2019-01-20T10:09:14.187Z,68.32
2019-01-20T10:10:14.255Z,69.68
2019-01-20T10:11:14.205Z,68.54
2019-01-20T10:12:14.084Z,66.93
2019-01-20T10:13:14.100Z,66.80
2019-01-20T10:14:14.097Z,67.75
2019-01-20T10:15:13.980Z,68.79
2019-01-20T10:16:13.938Z,69.40
2019-01-20T10:17:13.893Z,68.16
2019-01-20T10:18:13.858Z,67.06
2019-01-20T10:19:13.797Z,65.44
2019-01-20T10:20:13.764Z,65.54
2019-01-20T10:21:13.749Z,65.12
2019-01-20T10:22:13.703Z,65.95
2019-01-20T10:23:13.664Z,67.85
2019-01-20T10:24:13.656Z,68.70
2019-01-20T10:25:15.198Z,69.40
2019-01-20T10:26:13.565Z,69.11
2019-01-20T10:27:13.485Z,69.11
2019-01-20T10:28:13.450Z,68.92
2019-01-20T10:29:13.404Z,69.17
2019-01-20T10:30:13.354Z,70.31
2019-01-20T10:31:13.382Z,69.65
2019-01-20T10:32:13.286Z,69.36
2019-01-20T10:33:13.240Z,69.71
2019-01-20T10:34:13.193Z,70.28
2019-01-20T10:35:13.156Z,70.75
2019-01-20T10:36:13.155Z,70.69
2019-01-20T10:37:13.087Z,70.37
2019-01-20T10:38:13.046Z,70.47
2019-01-20T10:39:13.012Z,71.26
2019-01-20T10:40:12.963Z,70.03
2019-01-20T10:41:12.957Z,70.18
2019-01-20T10:42:12.882Z,70.50
2019-01-20T10:43:12.847Z,70.50
2019-01-20T10:44:12.806Z,69.40
2019-01-20T10:45:12.768Z,67.79
2019-01-20T10:46:12.814Z,66.93
2019-01-20T10:47:12.727Z,65.98
2019-01-20T10:48:12.647Z,65.98
2019-01-20T10:49:12.642Z,66.01
2019-01-20T10:50:12.573Z,65.92
2019-01-20T10:51:12.535Z,65.60
2019-01-20T10:52:12.529Z,66.27
2019-01-20T10:53:12.450Z,65.79
2019-01-20T10:54:12.452Z,65.60
2019-01-20T10:55:12.375Z,65.60
2019-01-20T10:56:12.340Z,65.31
2019-01-20T10:57:12.315Z,65.73
2019-01-20T10:58:12.278Z,64.11
2019-01-20T10:59:12.217Z,62.59
2019-01-20T11:00:12.175Z,62.43
2019-01-20T11:01:12.127Z,62.78
2019-01-20T11:02:12.090Z,62.75
2019-01-20T11:03:12.095Z,63.23
2019-01-20T11:04:12.032Z,63.89
2019-01-20T11:05:12.098Z,63.70
2019-01-20T11:06:12.159Z,62.94
2019-01-20T11:07:12.090Z,64.01
2019-01-20T11:08:11.966Z,65.91
2019-01-20T11:09:12.000Z,66.71
2019-01-20T11:10:11.784Z,67.27
2019-01-20T11:11:11.783Z,66.61
2019-01-20T11:12:11.703Z,66.23
2019-01-20T11:13:11.665Z,66.08
2019-01-20T11:14:11.608Z,66.08
2019-01-20T11:15:11.581Z,65.03
2019-01-20T11:16:11.573Z,64.37
2019-01-20T11:17:11.517Z,64.94
2019-01-20T11:18:11.458Z,65.31
2019-01-20T11:19:11.427Z,64.84
2019-01-20T11:20:11.372Z,64.65
2019-01-20T11:21:11.348Z,65.03
2019-01-20T11:22:11.326Z,63.98
2019-01-20T11:23:11.271Z,64.56
2019-01-20T11:24:11.234Z,64.84
2019-01-20T11:25:11.186Z,63.83
2019-01-20T11:26:11.171Z,63.26
2019-01-20T11:27:11.095Z,62.78
2019-01-20T11:28:11.054Z,63.23
2019-01-20T11:29:11.042Z,64.37
2019-01-20T11:30:11.015Z,64.94
2019-01-20T11:31:10.960Z,65.03
2019-01-20T11:32:10.940Z,64.84
2019-01-20T11:33:10.861Z,65.60
2019-01-20T11:34:10.824Z,65.47
2019-01-20T11:35:10.800Z,66.14
2019-01-20T11:36:10.752Z,66.71
2019-01-20T11:37:10.703Z,66.99
2019-01-20T11:38:10.690Z,66.14
2019-01-20T11:39:10.625Z,66.42
2019-01-20T11:40:10.593Z,65.95
2019-01-20T11:41:10.561Z,65.85
2019-01-20T11:42:10.562Z,65.60
2019-01-20T11:43:10.474Z,65.22
2019-01-20T11:44:16.877Z,64.46
2019-01-20T11:45:10.403Z,63.07
2019-01-20T11:46:10.371Z,63.13
2019-01-20T11:47:10.314Z,63.23
2019-01-20T11:48:10.267Z,63.86
2019-01-20T11:49:10.242Z,65.66
2019-01-20T11:50:10.189Z,65.95
2019-01-20T11:51:10.178Z,66.17
2019-01-20T11:52:10.138Z,65.98
2019-01-20T11:53:10.088Z,65.06
2019-01-20T11:54:10.042Z,64.46
2019-01-20T11:55:10.022Z,63.60
2019-01-20T11:56:09.975Z,64.94
2019-01-20T11:57:10.161Z,64.27
2019-01-20T11:58:09.882Z,64.37
2019-01-20T11:59:09.862Z,64.27
2019-01-20T12:00:09.806Z,65.00
2019-01-20T12:01:09.813Z,66.04
2019-01-20T12:02:09.737Z,66.10
2019-01-20T12:03:09.686Z,67.05
2019-01-20T12:04:09.682Z,67.05
2019-01-20T12:05:09.615Z,66.86
2019-01-20T12:06:09.575Z,67.85
2019-01-20T12:07:09.577Z,67.08
2019-01-20T12:08:09.489Z,66.58
2019-01-20T12:09:09.476Z,66.80
2019-01-20T12:10:09.407Z,66.80
2019-01-20T12:11:09.381Z,66.99
2019-01-20T12:12:09.333Z,66.33
2019-01-20T12:13:09.339Z,66.23
2019-01-20T12:14:09.262Z,66.08
2019-01-20T12:15:09.247Z,64.84
2019-01-20T12:16:09.202Z,64.27
2019-01-20T12:17:09.143Z,64.81
2019-01-20T12:18:09.180Z,65.75
2019-01-20T12:19:09.050Z,65.95
2019-01-20T12:20:09.010Z,65.95
2019-01-20T12:21:08.971Z,66.23
2019-01-20T12:22:08.967Z,65.31
2019-01-20T12:23:08.912Z,64.75
2019-01-20T12:24:08.844Z,64.17
2019-01-20T12:25:08.823Z,64.37
2019-01-20T12:26:08.776Z,63.89
2019-01-20T12:27:08.739Z,64.46
2019-01-20T12:28:08.724Z,65.03
2019-01-20T12:29:08.677Z,63.89
2019-01-20T12:30:08.625Z,64.27
2019-01-20T12:31:08.576Z,64.17
2019-01-20T12:32:08.529Z,64.94
2019-01-20T12:33:08.501Z,64.84
2019-01-20T12:34:08.490Z,64.84
2019-01-20T12:35:08.426Z,64.46
2019-01-20T12:36:08.400Z,64.90
2019-01-20T12:37:08.339Z,65.75
2019-01-20T12:38:08.297Z,65.28
2019-01-20T12:39:08.292Z,66.14
2019-01-20T12:40:08.221Z,65.95
2019-01-20T12:41:08.172Z,65.37
2019-01-20T12:42:08.167Z,65.56
2019-01-20T12:43:08.128Z,65.09
2019-01-20T12:44:08.056Z,65.66
2019-01-20T12:45:08.064Z,66.01
2019-01-20T12:46:08.027Z,66.48
2019-01-20T12:47:07.975Z,66.86
2019-01-20T12:48:07.910Z,66.86
2019-01-20T12:49:07.919Z,66.96
2019-01-20T12:50:07.866Z,67.62
2019-01-20T12:51:12.319Z,68.10
2019-01-20T12:52:07.752Z,68.19
2019-01-20T12:53:07.738Z,68.00
2019-01-20T12:54:07.702Z,68.15